createdAt,value
2022-10-22T00:14:00.306Z,65.92
2022-10-22T00:42:55.021Z,66.01
2022-10-22T01:11:51.143Z,66.04
2022-10-22T01:40:48.210Z,66.07
2022-10-22T02:09:40.710Z,66.06
2022-10-22T02:38:43.850Z,66.08
2022-10-22T03:07:35.486Z,66.09
2022-10-22T03:36:33.939Z,66.13
2022-10-22T04:05:31.462Z,66.23
2022-10-22T04:34:29.961Z,66.22
2022-10-22T05:03:19.296Z,66.34
2022-10-22T05:31:59.216Z,66.24
2022-10-22T06:00:41.339Z,66.26
2022-10-22T06:29:24.345Z,66.12
2022-10-22T06:58:06.948Z,65.83
2022-10-22T07:26:45.452Z,65.52
2022-10-22T07:55:15.347Z,65.53
2022-10-22T08:23:54.759Z,65.59
2022-10-22T08:52:31.976Z,65.71
2022-10-22T09:21:07.303Z,66.24
2022-10-22T09:49:56.193Z,66.1
2022-10-22T10:18:34.842Z,66.05
2022-10-22T10:47:19.193Z,66.02
2022-10-22T11:15:52.201Z,66.03
2022-10-22T11:44:22.471Z,65.89
2022-10-22T12:12:57.602Z,65.84
2022-10-22T12:41:30.192Z,66.02
2022-10-22T13:10:03.648Z,65.88
2022-10-22T13:38:42.277Z,65.81
2022-10-22T14:07:25.514Z,65.74
2022-10-22T14:35:57.703Z,65.68
2022-10-22T15:04:39.259Z,65.61
2022-10-22T15:33:26.979Z,65.81
2022-10-22T16:02:07.962Z,65.71
2022-10-22T16:30:44.509Z,65.69
2022-10-22T16:59:22.325Z,65.68
2022-10-22T17:27:57.253Z,65.71
2022-10-22T17:56:37.321Z,65.68
2022-10-22T18:25:17.751Z,65.77
2022-10-22T18:54:21.599Z,65.79
2022-10-22T19:22:23.529Z,65.98
2022-10-22T19:50:48.243Z,65.89
2022-10-22T20:19:26.038Z,65.85
2022-10-22T20:48:11.711Z,65.84
2022-10-22T21:16:50.470Z,65.84
2022-10-22T21:46:09.810Z,65.88
2022-10-22T22:14:34.179Z,65.81
2022-10-22T22:43:22.761Z,65.78
2022-10-22T23:12:12.943Z,65.81
2022-10-22T23:40:57.154Z,65.82
